createdAt,value
2022-07-29T00:00:01.140Z,97211.19
2022-07-29T00:02:29.350Z,97220.75
2022-07-29T00:04:56.525Z,97212.72
2022-07-29T00:07:23.477Z,97218.31
2022-07-29T00:09:52.034Z,97224.56
2022-07-29T00:12:26.235Z,97217.06
2022-07-29T00:14:57.495Z,97213.44
2022-07-29T00:17:25.085Z,97211.22
2022-07-29T00:19:52.651Z,97218.34
2022-07-29T00:22:20.590Z,97204.13
2022-07-29T00:24:50.815Z,97207.97
2022-07-29T00:27:18.555Z,97223.13
2022-07-29T00:29:45.911Z,97218.50
2022-07-29T00:32:13.049Z,97217.56
2022-07-29T00:34:58.543Z,97220.94
2022-07-29T00:37:26.123Z,97221.00
2022-07-29T00:39:53.167Z,97209.06
2022-07-29T00:42:20.116Z,97189.19
2022-07-29T00:44:47.243Z,97198.56
2022-07-29T00:47:14.216Z,97197.97
2022-07-29T00:49:43.231Z,97193.09
2022-07-29T00:52:12.131Z,97196.06
2022-07-29T00:54:44.438Z,97195.47
2022-07-29T00:57:12.601Z,97186.69
2022-07-29T00:59:39.777Z,97190.13
2022-07-29T01:02:07.067Z,97195.34
2022-07-29T01:04:34.530Z,97194.06
2022-07-29T01:07:05.587Z,97188.22
2022-07-29T01:09:42.964Z,97197.09
2022-07-29T01:12:25.623Z,97195.50
2022-07-29T01:14:54.371Z,97193.91
2022-07-29T01:17:21.291Z,97185.69
2022-07-29T01:20:07.362Z,97196.00
2022-07-29T01:22:37.565Z,97202.47
2022-07-29T01:25:16.571Z,97199.25
2022-07-29T01:28:18.937Z,97201.22
2022-07-29T01:30:47.580Z,97193.53
2022-07-29T01:33:38.366Z,97201.69
2022-07-29T01:36:13.010Z,97198.16
2022-07-29T01:38:43.864Z,97191.13
2022-07-29T01:41:18.541Z,97198.34
2022-07-29T01:44:03.779Z,97193.44
2022-07-29T01:46:36.072Z,97199.63
2022-07-29T01:49:11.292Z,97187.19
2022-07-29T01:51:50.113Z,97182.19
2022-07-29T01:54:31.827Z,97181.34
2022-07-29T01:57:01.473Z,97160.16
2022-07-29T01:59:31.424Z,97181.69
2022-07-29T02:02:00.393Z,97186.06
2022-07-29T02:04:30.464Z,97187.50
2022-07-29T02:07:02.765Z,97183.13
2022-07-29T02:09:32.752Z,97178.44
2022-07-29T02:12:02.192Z,97166.56
2022-07-29T02:14:34.148Z,97168.63
2022-07-29T02:17:02.798Z,97169.81
2022-07-29T02:19:32.736Z,97164.78
2022-07-29T02:22:01.390Z,97160.84
2022-07-29T02:24:30.952Z,97171.50
2022-07-29T02:27:00.495Z,97170.75
2022-07-29T02:29:30.081Z,97175.34
2022-07-29T02:31:59.379Z,97169.59
2022-07-29T02:34:26.825Z,97160.66
2022-07-29T02:36:56.548Z,97160.38
2022-07-29T02:39:27.162Z,97170.28
2022-07-29T02:42:09.538Z,97177.56
2022-07-29T02:44:37.206Z,97171.16
2022-07-29T02:47:16.431Z,97172.38
2022-07-29T02:50:03.612Z,97167.63
2022-07-29T02:52:33.612Z,97168.66
2022-07-29T02:55:37.434Z,97172.50
2022-07-29T02:58:13.313Z,97172.16
2022-07-29T03:00:42.095Z,97169.75
2022-07-29T03:03:16.181Z,97170.53
2022-07-29T03:05:43.181Z,97175.44
2022-07-29T03:08:13.051Z,97162.91
2022-07-29T03:10:46.720Z,97182.97
2022-07-29T03:13:15.036Z,97170.41
2022-07-29T03:15:45.212Z,97170.88
2022-07-29T03:18:12.532Z,97171.13
2022-07-29T03:20:40.169Z,97180.22
2022-07-29T03:23:08.726Z,97186.78
2022-07-29T03:25:36.031Z,97177.22
2022-07-29T03:28:03.503Z,97174.59
2022-07-29T03:30:31.861Z,97192.19
2022-07-29T03:32:59.191Z,97192.84
2022-07-29T03:35:26.177Z,97199.38
2022-07-29T03:37:53.116Z,97195.00
2022-07-29T03:40:36.508Z,97203.28
2022-07-29T03:43:04.863Z,97199.56
2022-07-29T03:45:32.992Z,97196.06
2022-07-29T03:48:10.670Z,97202.66
2022-07-29T03:50:37.739Z,97203.50
2022-07-29T03:53:05.236Z,97206.91
2022-07-29T03:55:37.528Z,97204.31
2022-07-29T03:58:04.901Z,97210.44
2022-07-29T04:00:32.851Z,97216.53
2022-07-29T04:02:59.903Z,97211.47
2022-07-29T04:05:26.859Z,97207.84
2022-07-29T04:07:53.817Z,97205.19
2022-07-29T04:10:30.560Z,97213.56
2022-07-29T04:13:00.082Z,97203.53
2022-07-29T04:15:30.975Z,97189.41
2022-07-29T04:17:59.887Z,97220.19
2022-07-29T04:20:26.995Z,97218.63
2022-07-29T04:22:53.919Z,97201.38
2022-07-29T04:25:21.150Z,97224.84
2022-07-29T04:28:03.198Z,97221.53
2022-07-29T04:30:31.779Z,97167.59
2022-07-29T04:32:59.096Z,97210.56
2022-07-29T04:35:26.214Z,97219.41
2022-07-29T04:37:53.382Z,97223.81
2022-07-29T04:40:20.674Z,97213.44
2022-07-29T04:42:48.021Z,97224.19
2022-07-29T04:45:16.509Z,97216.47
2022-07-29T04:47:49.507Z,97212.81
2022-07-29T04:50:16.462Z,97227.16
2022-07-29T04:52:44.877Z,97217.81
2022-07-29T04:55:12.526Z,97218.63
2022-07-29T04:57:39.540Z,97229.03
2022-07-29T05:00:07.404Z,97221.00
2022-07-29T05:02:34.470Z,97228.34
2022-07-29T05:05:01.588Z,97229.53
2022-07-29T05:07:30.171Z,97240.47
2022-07-29T05:09:58.038Z,97237.19
2022-07-29T05:12:25.729Z,97244.97
2022-07-29T05:14:53.059Z,97246.81
2022-07-29T05:17:20.092Z,97241.31
2022-07-29T05:19:47.333Z,97238.72
2022-07-29T05:22:14.353Z,97246.63
2022-07-29T05:24:41.784Z,97234.78
2022-07-29T05:27:08.787Z,97238.41
2022-07-29T05:29:43.795Z,97256.97
2022-07-29T05:32:13.152Z,97255.16
2022-07-29T05:34:51.038Z,97254.59
2022-07-29T05:37:20.521Z,97255.31
2022-07-29T05:39:50.384Z,97251.09
2022-07-29T05:42:23.494Z,97252.44
2022-07-29T05:44:50.391Z,97255.59
2022-07-29T05:47:17.557Z,97248.50
2022-07-29T05:49:44.513Z,97244.97
2022-07-29T05:52:11.562Z,97252.50
2022-07-29T05:54:38.538Z,97247.16
2022-07-29T05:57:06.416Z,97247.03
2022-07-29T05:59:37.500Z,97249.63
2022-07-29T06:02:06.199Z,97245.38
2022-07-29T06:04:34.735Z,97248.81
2022-07-29T06:07:02.849Z,97253.75
2022-07-29T06:09:30.605Z,97252.00
2022-07-29T06:11:58.934Z,97244.16
2022-07-29T06:14:27.544Z,97256.50
2022-07-29T06:16:54.758Z,97253.84
2022-07-29T06:19:21.926Z,97257.91
2022-07-29T06:21:49.184Z,97252.47
2022-07-29T06:24:17.446Z,97256.63
2022-07-29T06:26:44.803Z,97244.38
2022-07-29T06:29:12.928Z,97257.69
2022-07-29T06:31:40.527Z,97247.25
2022-07-29T06:34:08.164Z,97238.47
2022-07-29T06:36:37.889Z,97257.56
2022-07-29T06:39:08.127Z,97256.88
2022-07-29T06:41:35.985Z,97264.00
2022-07-29T06:44:10.489Z,97237.56
2022-07-29T06:46:37.761Z,97251.94
2022-07-29T06:49:05.626Z,97255.25
2022-07-29T06:51:33.093Z,97253.88
2022-07-29T06:54:02.837Z,97243.06
2022-07-29T06:56:38.565Z,97250.28
2022-07-29T06:59:08.992Z,97242.25
2022-07-29T07:01:41.490Z,97253.16
2022-07-29T07:04:09.962Z,97251.22
2022-07-29T07:06:38.150Z,97247.31
2022-07-29T07:09:05.330Z,97247.91
2022-07-29T07:11:32.484Z,97252.13
2022-07-29T07:14:14.771Z,97253.94
2022-07-29T07:16:44.938Z,97244.16
2022-07-29T07:19:12.009Z,97244.50
2022-07-29T07:21:41.624Z,97243.41
2022-07-29T07:24:08.680Z,97249.28
2022-07-29T07:26:35.934Z,97251.97
2022-07-29T07:29:03.127Z,97205.06
2022-07-29T07:31:30.434Z,97206.53
2022-07-29T07:33:57.921Z,97238.13
2022-07-29T07:36:24.961Z,97247.38
2022-07-29T07:38:51.992Z,97243.56
2022-07-29T07:41:19.242Z,97235.47
2022-07-29T07:43:46.510Z,97233.25
2022-07-29T07:46:13.569Z,97233.47
2022-07-29T07:48:40.603Z,97240.41
2022-07-29T07:51:08.449Z,97241.59
2022-07-29T07:53:35.657Z,97243.13
2022-07-29T07:56:12.166Z,97237.66
2022-07-29T07:58:39.825Z,97238.69
2022-07-29T08:01:07.088Z,97222.28
2022-07-29T08:03:34.484Z,97227.81
2022-07-29T08:06:01.953Z,97229.19
2022-07-29T08:08:28.900Z,97223.16
2022-07-29T08:11:02.245Z,97222.38
2022-07-29T08:13:33.059Z,97204.44
2022-07-29T08:16:12.655Z,97214.84
2022-07-29T08:18:41.235Z,97218.53
2022-07-29T08:21:08.379Z,97216.06
2022-07-29T08:23:50.582Z,97220.53
2022-07-29T08:26:21.211Z,97209.53
2022-07-29T08:28:51.464Z,97222.66
2022-07-29T08:31:25.511Z,97225.09
2022-07-29T08:33:52.602Z,97218.44
2022-07-29T08:36:22.140Z,97229.50
2022-07-29T08:38:50.553Z,97214.50
2022-07-29T08:41:20.070Z,97217.50
2022-07-29T08:43:48.772Z,97223.13
2022-07-29T08:46:18.206Z,97208.59
2022-07-29T08:48:45.835Z,97207.13
2022-07-29T08:51:19.380Z,97212.38
2022-07-29T08:53:51.109Z,97204.03
2022-07-29T08:56:19.679Z,97194.75
2022-07-29T08:58:50.654Z,97188.63
2022-07-29T09:01:35.563Z,97196.66
2022-07-29T09:04:07.087Z,97206.06
2022-07-29T09:06:37.901Z,97190.06
2022-07-29T09:09:05.537Z,97185.41
2022-07-29T09:11:33.716Z,97197.38
2022-07-29T09:14:00.754Z,97194.03
2022-07-29T09:16:53.082Z,97183.06
2022-07-29T09:19:29.775Z,97180.59
2022-07-29T09:22:03.615Z,97165.28
2022-07-29T09:24:43.496Z,97180.88
2022-07-29T09:27:27.050Z,97167.28
2022-07-29T09:30:15.476Z,97179.06
2022-07-29T09:33:02.424Z,97157.00
2022-07-29T09:35:31.046Z,97170.09
2022-07-29T09:37:58.142Z,97170.41
2022-07-29T09:40:28.617Z,97160.19
2022-07-29T09:42:58.803Z,97172.47
2022-07-29T09:45:28.656Z,97172.69
2022-07-29T09:47:57.881Z,97164.94
2022-07-29T09:50:36.194Z,97174.63
2022-07-29T09:53:03.302Z,97180.81
2022-07-29T09:55:30.389Z,97176.28
2022-07-29T09:58:17.631Z,97174.38
2022-07-29T10:00:45.288Z,97167.50
2022-07-29T10:03:13.179Z,97161.09
2022-07-29T10:05:41.942Z,97168.00
2022-07-29T10:08:10.754Z,97173.28
2022-07-29T10:10:47.946Z,97151.38
2022-07-29T10:13:16.526Z,97161.50
2022-07-29T10:15:46.932Z,97151.75
2022-07-29T10:18:15.618Z,97145.19
2022-07-29T10:20:42.932Z,97147.63
2022-07-29T10:23:10.721Z,97139.56
2022-07-29T10:25:38.102Z,97134.53
2022-07-29T10:28:06.836Z,97134.63
2022-07-29T10:30:34.396Z,97129.47
2022-07-29T10:33:33.777Z,97135.78
2022-07-29T10:36:22.437Z,97121.69
2022-07-29T10:38:53.985Z,97127.75
2022-07-29T10:41:48.402Z,97119.25
2022-07-29T10:44:19.346Z,97117.22
2022-07-29T10:46:51.712Z,97109.31
2022-07-29T10:49:24.315Z,97129.13
2022-07-29T10:52:06.147Z,97124.50
2022-07-29T10:54:36.526Z,97111.25
2022-07-29T10:57:21.522Z,97111.66
2022-07-29T11:00:02.170Z,97104.69
2022-07-29T11:02:43.767Z,97107.00
2022-07-29T11:05:15.868Z,97107.88
2022-07-29T11:08:20.044Z,97109.59
2022-07-29T11:10:49.929Z,97110.00
2022-07-29T11:13:48.962Z,97103.41
2022-07-29T11:16:16.503Z,97108.78
2022-07-29T11:19:13.250Z,97107.97
2022-07-29T11:21:53.521Z,97099.13
2022-07-29T11:24:30.487Z,97089.53
2022-07-29T11:27:11.374Z,97102.19
2022-07-29T11:29:51.976Z,97091.28
2022-07-29T11:32:23.277Z,97094.81
2022-07-29T11:35:17.343Z,97095.00
2022-07-29T11:38:28.592Z,97093.56
2022-07-29T11:41:28.804Z,97087.78
2022-07-29T11:43:59.054Z,97072.09
2022-07-29T11:46:53.898Z,97072.09
2022-07-29T11:49:31.955Z,97069.38
2022-07-29T11:52:04.504Z,97072.66
2022-07-29T11:57:22.140Z,97064.53
2022-07-29T11:59:49.318Z,97060.06
2022-07-29T12:02:36.745Z,97056.78
2022-07-29T14:33:49.352Z,96966.78
2022-07-29T14:36:16.858Z,96956.63
2022-07-29T14:38:43.979Z,96956.38
2022-07-29T14:41:10.947Z,96962.50
2022-07-29T14:43:37.924Z,96960.00
2022-07-29T14:46:08.332Z,96949.78
2022-07-29T14:48:36.140Z,96942.22
2022-07-29T14:51:05.035Z,96955.88
2022-07-29T14:53:32.884Z,96950.72
2022-07-29T14:56:10.281Z,96946.19
2022-07-29T14:58:51.593Z,96948.06
2022-07-29T15:01:19.115Z,96948.44
2022-07-29T15:03:46.817Z,96949.88
2022-07-29T15:06:14.085Z,96934.22
2022-07-29T15:08:41.179Z,96946.59
2022-07-29T15:11:08.301Z,96939.97
2022-07-29T15:13:35.676Z,96939.50
2022-07-29T15:16:02.618Z,96933.88
2022-07-29T15:18:29.651Z,96939.88
2022-07-29T15:20:56.578Z,96939.53
2022-07-29T15:23:23.872Z,96942.22
2022-07-29T15:25:50.890Z,96942.84
2022-07-29T15:28:17.827Z,96919.59
2022-07-29T15:30:44.788Z,96939.22
2022-07-29T15:33:11.845Z,96944.63
2022-07-29T15:35:40.357Z,96947.09
2022-07-29T15:38:08.346Z,96948.28
2022-07-29T15:40:35.528Z,96948.06
2022-07-29T15:43:06.796Z,96947.91
2022-07-29T15:45:40.815Z,96942.53
2022-07-29T15:48:09.688Z,96933.47
2022-07-29T15:50:40.224Z,96929.34
2022-07-29T15:53:07.126Z,96944.16
2022-07-29T15:55:34.085Z,96944.81
2022-07-29T15:58:01.012Z,96944.81
2022-07-29T16:00:28.123Z,96947.09
2022-07-29T16:02:55.101Z,96939.88
2022-07-29T16:05:22.994Z,96949.56
2022-07-29T16:07:49.978Z,96945.66
2022-07-29T16:10:16.907Z,96944.22
2022-07-29T16:12:43.794Z,96938.25
2022-07-29T16:15:11.027Z,96948.75
2022-07-29T16:17:39.025Z,96941.72
2022-07-29T16:20:06.998Z,96939.69
2022-07-29T16:22:33.954Z,96943.81
2022-07-29T16:25:00.993Z,96946.06
2022-07-29T16:27:31.382Z,96932.63
2022-07-29T16:30:05.742Z,96941.31
2022-07-29T16:32:32.669Z,96940.09
2022-07-29T16:35:02.129Z,96949.53
2022-07-29T16:37:33.776Z,96943.16
2022-07-29T16:40:01.104Z,96951.38
2022-07-29T16:42:45.933Z,96945.78
2022-07-29T16:45:14.278Z,96945.00
2022-07-29T16:47:41.248Z,96937.56
2022-07-29T16:50:09.136Z,96946.00
2022-07-29T16:52:37.681Z,96942.91
2022-07-29T16:55:05.232Z,96948.84
2022-07-29T16:57:32.540Z,96954.81
2022-07-29T16:59:59.492Z,96951.84
2022-07-29T17:02:26.485Z,96958.81
2022-07-29T17:04:53.390Z,96964.78
2022-07-29T17:07:20.313Z,96972.94
2022-07-29T17:09:47.421Z,96978.72
2022-07-29T17:12:14.381Z,96979.13
2022-07-29T17:14:41.841Z,96978.91
2022-07-29T17:17:15.632Z,96909.47
2022-07-29T17:19:43.771Z,96984.00
2022-07-29T17:22:17.197Z,96987.28
2022-07-29T17:24:47.599Z,96990.63
2022-07-29T17:27:16.057Z,97004.91
2022-07-29T17:29:43.036Z,96992.47
2022-07-29T17:32:11.051Z,96993.25
2022-07-29T17:34:39.437Z,96997.94
2022-07-29T17:37:08.148Z,96995.22
2022-07-29T17:39:35.719Z,96999.22
2022-07-29T17:42:04.163Z,97005.97
2022-07-29T17:44:31.558Z,97016.44
2022-07-29T17:47:00.795Z,97007.84
2022-07-29T17:49:28.295Z,97014.53
2022-07-29T17:52:00.366Z,97010.25
2022-07-29T17:54:29.000Z,97018.50
2022-07-29T17:56:56.341Z,97012.53
2022-07-29T17:59:23.561Z,97023.59
2022-07-29T18:01:50.609Z,97025.41
2022-07-29T18:04:20.958Z,97026.28
2022-07-29T18:06:48.575Z,97031.63
2022-07-29T18:09:15.465Z,97036.88
2022-07-29T18:11:44.356Z,97045.44
2022-07-29T18:14:13.612Z,97043.38
2022-07-29T18:16:40.877Z,97048.91
2022-07-29T18:19:08.062Z,97055.44
2022-07-29T18:21:38.145Z,97058.41
2022-07-29T18:24:19.009Z,97059.94
2022-07-29T18:26:46.045Z,97058.09
2022-07-29T18:29:12.944Z,97068.50
2022-07-29T18:31:41.360Z,97074.38
2022-07-29T18:34:08.462Z,97082.94
2022-07-29T18:36:35.430Z,97085.41
2022-07-29T18:39:02.430Z,97082.00
2022-07-29T18:41:29.306Z,97089.50
2022-07-29T18:43:56.235Z,97088.34
2022-07-29T18:46:23.279Z,97089.19
2022-07-29T18:48:52.638Z,97089.53
2022-07-29T18:51:19.913Z,97092.97
2022-07-29T18:53:46.931Z,97099.69
2022-07-29T18:56:14.460Z,97101.88
2022-07-29T18:58:41.350Z,97097.25
2022-07-29T19:01:08.291Z,97096.59
2022-07-29T19:03:35.223Z,97110.84
2022-07-29T19:06:02.222Z,97112.72
2022-07-29T19:08:29.154Z,97118.31
2022-07-29T19:10:56.129Z,97116.19
2022-07-29T19:13:23.260Z,97116.09
2022-07-29T19:15:50.260Z,97122.28
2022-07-29T19:18:17.222Z,97112.91
2022-07-29T19:20:44.179Z,97118.13
2022-07-29T19:23:11.072Z,97121.22
2022-07-29T19:25:53.068Z,97115.59
2022-07-29T19:28:21.566Z,97113.84
2022-07-29T19:30:49.245Z,97117.16
2022-07-29T19:33:17.766Z,97116.22
2022-07-29T19:35:46.013Z,97109.84
2022-07-29T19:38:13.673Z,97120.50
2022-07-29T19:40:40.709Z,97122.16
2022-07-29T19:43:50.378Z,97110.44
2022-07-29T19:45:54.936Z,97118.72
2022-07-29T19:48:21.846Z,97131.56
2022-07-29T19:50:48.924Z,97126.75
2022-07-29T19:53:15.838Z,97136.25
2022-07-29T19:55:42.929Z,97133.56
2022-07-29T19:58:09.823Z,97140.03
2022-07-29T20:00:36.762Z,97140.41
2022-07-29T20:03:07.064Z,97139.91
2022-07-29T20:05:34.133Z,97129.50
2022-07-29T20:08:01.649Z,97140.31
2022-07-29T20:10:28.845Z,97138.13
2022-07-29T20:12:56.134Z,97139.75
2022-07-29T20:15:23.450Z,97128.47
2022-07-29T20:17:52.857Z,97147.88
2022-07-29T20:20:23.870Z,97145.22
2022-07-29T20:22:50.921Z,97148.38
2022-07-29T20:25:17.890Z,97146.88
2022-07-29T20:27:44.846Z,97149.50
2022-07-29T20:30:15.111Z,97149.69
2022-07-29T20:32:42.161Z,97151.69
2022-07-29T20:35:10.091Z,97154.44
2022-07-29T20:37:52.117Z,97158.44
2022-07-29T20:40:23.313Z,97153.91
2022-07-29T20:42:50.378Z,97152.94
2022-07-29T20:45:17.541Z,97167.91
2022-07-29T20:47:48.003Z,97146.50
2022-07-29T20:50:15.028Z,97160.31
2022-07-29T20:52:43.548Z,97164.34
2022-07-29T20:55:13.417Z,97166.53
2022-07-29T20:57:40.366Z,97170.19
2022-07-29T21:00:09.129Z,97171.53
2022-07-29T21:02:37.153Z,97166.34
2022-07-29T21:05:05.027Z,97172.69
2022-07-29T21:07:32.058Z,97159.38
2022-07-29T21:09:59.152Z,97174.31
2022-07-29T21:12:26.157Z,97171.16
2022-07-29T21:14:53.085Z,97177.81
2022-07-29T21:17:22.589Z,97179.16
2022-07-29T21:19:55.317Z,97175.84
2022-07-29T21:22:22.541Z,97179.84
2022-07-29T21:24:49.755Z,97180.50
2022-07-29T21:27:38.322Z,97159.22
2022-07-29T21:30:07.945Z,97190.25
2022-07-29T21:32:35.084Z,97181.81
2022-07-29T21:35:02.062Z,97170.81
2022-07-29T21:37:30.517Z,97174.31
2022-07-29T21:39:57.457Z,97150.59
2022-07-29T21:42:24.670Z,97158.56
2022-07-29T21:44:51.785Z,97177.50
2022-07-29T21:47:18.823Z,97164.53
2022-07-29T21:49:46.610Z,97179.00
2022-07-29T21:52:14.258Z,97178.66
2022-07-29T21:54:42.015Z,97172.84
2022-07-29T21:57:09.513Z,97173.81
2022-07-29T21:59:38.107Z,97170.16
2022-07-29T22:02:04.986Z,97180.75
2022-07-29T22:04:32.180Z,97177.31
2022-07-29T22:06:59.529Z,97183.47
2022-07-29T22:09:26.693Z,97173.16
2022-07-29T22:11:54.759Z,97171.63
2022-07-29T22:14:22.299Z,97179.88
2022-07-29T22:16:49.282Z,97180.47
2022-07-29T22:19:16.267Z,97152.72
2022-07-29T22:21:43.467Z,97171.88
2022-07-29T22:24:11.380Z,97167.75
2022-07-29T22:26:38.592Z,97156.78
2022-07-29T22:29:06.494Z,97153.38
2022-07-29T22:31:33.547Z,97157.31
2022-07-29T22:34:00.625Z,97162.00
2022-07-29T22:36:27.721Z,97162.69
2022-07-29T22:38:54.770Z,97162.00
2022-07-29T22:41:21.732Z,97155.97
2022-07-29T22:43:48.653Z,97154.00
2022-07-29T22:46:21.629Z,97153.97
2022-07-29T22:48:49.264Z,97150.84
2022-07-29T22:51:16.366Z,97140.19
2022-07-29T22:53:43.533Z,97143.03
2022-07-29T22:56:10.548Z,97139.16
2022-07-29T22:58:37.666Z,97144.38
2022-07-29T23:01:04.723Z,97139.47
2022-07-29T23:03:32.063Z,97122.13
2022-07-29T23:05:59.143Z,97127.13
2022-07-29T23:08:26.385Z,97117.88
2022-07-29T23:10:53.386Z,97123.69
2022-07-29T23:13:20.491Z,97128.69
2022-07-29T23:15:47.459Z,97123.84
2022-07-29T23:18:15.150Z,97121.00
2022-07-29T23:20:43.068Z,97116.53
2022-07-29T23:23:10.416Z,97119.78
2022-07-29T23:25:37.545Z,97117.75
2022-07-29T23:28:05.140Z,97119.56
2022-07-29T23:30:32.313Z,97108.25
2022-07-29T23:32:59.257Z,97113.88
2022-07-29T23:35:26.438Z,97121.94
2022-07-29T23:37:53.532Z,97109.84
2022-07-29T23:40:20.479Z,97111.50
2022-07-29T23:42:47.497Z,97114.63
2022-07-29T23:45:14.845Z,97113.75
2022-07-29T23:47:42.942Z,97108.91
2022-07-29T23:50:16.808Z,97092.03
2022-07-29T23:52:44.563Z,97104.16
2022-07-29T23:55:36.766Z,97099.84
2022-07-29T23:58:03.128Z,97102.34
